createdAt,value
2019-03-27T00:04:09.511Z,9.47
2019-03-27T00:09:18.312Z,10.97
2019-03-27T00:14:25.179Z,9.68
2019-03-27T00:19:31.991Z,10.50
2019-03-27T00:24:39.190Z,11.53
2019-03-27T00:29:46.259Z,11.97
2019-03-27T00:34:53.163Z,10.60
2019-03-27T00:40:00.331Z,11.17
2019-03-27T00:45:08.124Z,12.27
2019-03-27T00:50:15.089Z,12.13
2019-03-27T00:55:22.006Z,12.80
2019-03-27T01:00:34.706Z,11.60
2019-03-27T01:05:41.832Z,12.87
2019-03-27T01:10:49.522Z,12.67
2019-03-27T01:15:56.331Z,12.50
2019-03-27T01:21:03.427Z,12.50
2019-03-27T01:26:10.246Z,13.57
2019-03-27T01:31:17.215Z,13.15
2019-03-27T01:36:24.242Z,13.72
2019-03-27T01:41:31.234Z,12.73
2019-03-27T01:46:38.293Z,13.27
2019-03-27T01:51:45.280Z,13.88
2019-03-27T01:56:52.091Z,14.38
2019-03-27T02:01:59.398Z,13.23
2019-03-27T02:07:06.399Z,14.53
2019-03-27T02:12:13.233Z,13.43
2019-03-27T02:17:20.326Z,15.10
2019-03-27T02:22:27.141Z,13.53
2019-03-27T02:27:34.091Z,14.18
2019-03-27T02:32:40.975Z,15.00
2019-03-27T02:37:48.720Z,15.00
2019-03-27T02:42:55.599Z,13.97
2019-03-27T02:48:03.573Z,13.95
2019-03-27T02:53:10.598Z,15.48
2019-03-27T02:58:19.168Z,14.05
2019-03-27T03:03:25.993Z,15.17
2019-03-27T03:08:32.912Z,13.10
2019-03-27T03:13:39.822Z,15.37
2019-03-27T03:18:46.658Z,14.37
2019-03-27T03:23:53.504Z,15.97
2019-03-27T03:29:00.671Z,15.30
2019-03-27T03:34:09.126Z,14.23
2019-03-27T03:39:16.755Z,15.87
2019-03-27T03:44:24.271Z,15.50
2019-03-27T03:49:31.203Z,14.87
2019-03-27T03:54:38.339Z,14.63
2019-03-27T03:59:45.981Z,16.85
2019-03-27T04:04:55.516Z,16.30
2019-03-27T04:10:02.581Z,17.13
2019-03-27T04:15:09.496Z,17.63
2019-03-27T04:20:16.321Z,18.30
2019-03-27T04:25:23.206Z,17.47
2019-03-27T04:30:30.189Z,16.40
2019-03-27T04:35:37.114Z,18.47
2019-03-27T04:40:44.018Z,17.87
2019-03-27T04:45:50.799Z,19.40
2019-03-27T04:50:58.088Z,19.80
2019-03-27T04:56:05.548Z,19.53
2019-03-27T05:01:15.612Z,18.52
2019-03-27T05:06:22.944Z,18.40
2019-03-27T05:11:29.791Z,20.30
2019-03-27T05:16:36.795Z,20.87
2019-03-27T05:21:43.700Z,20.63
2019-03-27T05:26:50.968Z,20.73
2019-03-27T05:31:57.787Z,20.53
2019-03-27T05:37:04.744Z,19.57
2019-03-27T05:42:11.683Z,19.90
2019-03-27T05:47:18.728Z,19.73
2019-03-27T05:52:25.594Z,22.50
2019-03-27T05:57:32.632Z,21.47
2019-03-27T06:02:39.608Z,22.17
2019-03-27T06:07:46.644Z,20.53
2019-03-27T06:12:53.532Z,21.83
2019-03-27T06:18:12.549Z,20.93
2019-03-27T06:23:08.878Z,22.77
2019-03-27T06:28:15.903Z,23.52
2019-03-27T06:33:22.948Z,23.60
2019-03-27T06:38:29.842Z,23.83
2019-03-27T06:43:36.813Z,23.60
2019-03-27T06:48:43.688Z,25.33
2019-03-27T06:53:51.807Z,25.80
2019-03-27T06:58:58.712Z,25.20
2019-03-27T07:04:10.854Z,24.93
2019-03-27T07:09:16.141Z,24.07
2019-03-27T07:14:23.025Z,23.67
2019-03-27T07:19:29.931Z,23.43
2019-03-27T07:24:36.948Z,22.27
2019-03-27T07:29:43.798Z,20.87
2019-03-27T07:34:50.812Z,18.63
2019-03-27T07:39:57.771Z,19.47
2019-03-27T07:45:05.000Z,17.80
2019-03-27T07:50:13.039Z,15.30
2019-03-27T07:55:20.117Z,13.07
2019-03-27T08:00:27.040Z,14.47
2019-03-27T08:05:33.916Z,13.57
2019-03-27T08:10:40.932Z,14.03
2019-03-27T08:15:47.758Z,16.33
2019-03-27T08:20:54.931Z,17.00
2019-03-27T08:26:01.714Z,14.70
2019-03-27T08:31:08.779Z,14.83
2019-03-27T08:36:15.578Z,14.23
2019-03-27T08:41:22.356Z,14.73
2019-03-27T08:46:29.157Z,16.15
2019-03-27T08:51:35.930Z,12.70
2019-03-27T08:56:42.939Z,11.33
2019-03-27T09:01:51.235Z,12.97
2019-03-27T09:06:58.116Z,13.53
2019-03-27T09:12:05.944Z,11.38
2019-03-27T09:17:12.764Z,9.20
2019-03-27T09:22:19.544Z,10.13
2019-03-27T09:27:26.485Z,10.07
2019-03-27T09:32:33.315Z,9.67
2019-03-27T09:37:40.183Z,8.13
2019-03-27T09:42:46.973Z,8.03
2019-03-27T09:47:53.910Z,8.33
2019-03-27T09:53:00.871Z,9.13
2019-03-27T09:58:08.483Z,9.83
2019-03-27T10:03:15.396Z,8.20
2019-03-27T10:08:22.294Z,9.20
2019-03-27T10:13:29.218Z,8.33
2019-03-27T10:18:36.624Z,7.87
2019-03-27T10:23:43.630Z,10.87
2019-03-27T10:28:50.408Z,8.70
2019-03-27T10:33:57.216Z,8.05
2019-03-27T10:39:05.581Z,6.30
2019-03-27T10:44:12.657Z,6.43
2019-03-27T10:49:19.517Z,5.40
2019-03-27T10:54:26.407Z,5.13
2019-03-27T10:59:33.821Z,5.85
2019-03-27T11:04:41.448Z,5.90
2019-03-27T11:09:48.864Z,5.60
2019-03-27T11:14:55.716Z,5.90
2019-03-27T11:20:02.654Z,4.70
2019-03-27T11:25:09.900Z,6.73
2019-03-27T11:30:17.084Z,6.22
2019-03-27T11:35:24.039Z,6.75
2019-03-27T11:40:31.626Z,6.15
2019-03-27T11:45:38.806Z,5.87
2019-03-27T11:50:45.687Z,4.87
2019-03-27T11:55:52.795Z,4.97
2019-03-27T12:00:59.593Z,3.93
2019-03-27T12:06:06.470Z,4.00
2019-03-27T12:11:13.314Z,3.90
2019-03-27T12:16:20.226Z,3.70
2019-03-27T12:21:27.043Z,4.13
2019-03-27T12:26:33.940Z,4.87
2019-03-27T12:31:42.381Z,4.53
2019-03-27T12:36:49.189Z,5.00
2019-03-27T12:41:57.334Z,4.50
2019-03-27T12:47:22.978Z,4.10
2019-03-27T12:52:30.010Z,5.10
2019-03-27T12:57:38.268Z,5.12
2019-03-27T13:02:45.087Z,5.60
2019-03-27T13:07:51.947Z,5.92
2019-03-27T13:12:58.800Z,6.70
2019-03-27T13:18:06.047Z,6.10
2019-03-27T13:23:13.028Z,5.45
2019-03-27T13:28:20.081Z,6.27
2019-03-27T13:33:27.027Z,5.73
2019-03-27T13:38:33.877Z,7.00
2019-03-27T13:43:40.751Z,6.53
2019-03-27T13:48:47.652Z,6.33
2019-03-27T13:53:54.490Z,5.83
2019-03-27T13:59:01.767Z,6.40
2019-03-27T14:04:09.626Z,6.60
2019-03-27T14:09:16.579Z,5.87
2019-03-27T14:14:23.420Z,6.50
2019-03-27T14:19:31.192Z,6.13
2019-03-27T14:24:38.019Z,8.00
2019-03-27T14:29:45.050Z,5.27
2019-03-27T14:34:53.856Z,5.65
2019-03-27T14:40:00.423Z,6.03
2019-03-27T14:45:09.112Z,5.57
2019-03-27T14:50:16.184Z,5.72
2019-03-27T14:55:23.012Z,5.27
2019-03-27T15:00:29.774Z,4.97
2019-03-27T15:05:36.624Z,5.53
2019-03-27T15:10:43.446Z,5.40
2019-03-27T15:15:50.946Z,5.22
2019-03-27T15:20:57.927Z,5.30
2019-03-27T15:26:05.841Z,4.30
2019-03-27T15:31:20.395Z,4.80
2019-03-27T15:36:21.357Z,5.20
2019-03-27T15:41:28.182Z,5.33
2019-03-27T15:46:35.136Z,5.43
2019-03-27T15:51:43.664Z,5.53
2019-03-27T15:56:50.652Z,5.60
2019-03-27T16:01:58.070Z,5.37
2019-03-27T16:07:05.840Z,6.08
2019-03-27T16:12:12.671Z,6.03
2019-03-27T16:17:20.573Z,6.10
2019-03-27T16:22:27.537Z,5.60
2019-03-27T16:27:34.483Z,6.53
2019-03-27T16:32:41.528Z,6.33
2019-03-27T16:37:48.457Z,6.07
2019-03-27T16:42:55.312Z,6.15
2019-03-27T16:48:02.143Z,6.33
2019-03-27T16:53:08.973Z,6.77
2019-03-27T16:58:17.152Z,6.73
2019-03-27T17:03:23.979Z,6.30
2019-03-27T17:08:30.887Z,6.00
2019-03-27T17:13:37.811Z,9.00
2019-03-27T17:18:44.657Z,7.33
2019-03-27T17:23:51.474Z,7.93
2019-03-27T17:28:59.437Z,12.00
2019-03-27T17:34:07.535Z,6.80
2019-03-27T17:39:14.518Z,7.40
2019-03-27T17:44:21.445Z,7.27
2019-03-27T17:49:28.374Z,6.23
2019-03-27T17:54:35.321Z,6.57
2019-03-27T17:59:42.379Z,6.70
2019-03-27T18:04:49.356Z,6.42
2019-03-27T18:09:56.300Z,7.23
2019-03-27T18:15:04.211Z,8.78
2019-03-27T18:20:11.956Z,7.10
2019-03-27T18:25:19.116Z,7.70
2019-03-27T18:30:25.984Z,7.83
2019-03-27T18:35:32.874Z,7.30
2019-03-27T18:40:39.782Z,7.40
2019-03-27T18:45:46.969Z,8.20
2019-03-27T18:50:53.834Z,7.93
2019-03-27T18:56:01.795Z,8.00
2019-03-27T19:01:09.174Z,8.37
2019-03-27T19:06:16.069Z,9.37
2019-03-27T19:11:23.070Z,8.53
2019-03-27T19:16:29.863Z,9.50
2019-03-27T19:21:36.691Z,9.13
2019-03-27T19:26:43.635Z,9.40
2019-03-27T19:31:50.418Z,9.03
2019-03-27T19:36:57.208Z,9.50
2019-03-27T19:42:04.090Z,8.90
2019-03-27T19:47:11.339Z,9.40
2019-03-27T19:52:18.171Z,8.97
2019-03-27T19:57:25.172Z,9.37
2019-03-27T20:02:32.631Z,9.25
2019-03-27T20:07:39.614Z,9.13
2019-03-27T20:12:47.531Z,9.80
2019-03-27T20:17:54.338Z,10.72
2019-03-27T20:23:13.909Z,11.40
2019-03-27T20:28:09.891Z,10.67
2019-03-27T20:33:16.886Z,10.77
2019-03-27T20:38:24.314Z,9.95
2019-03-27T20:43:31.273Z,10.87
2019-03-27T20:48:42.405Z,9.77
2019-03-27T20:53:48.252Z,10.65
2019-03-27T20:58:55.124Z,10.73
2019-03-27T21:04:02.979Z,10.37
2019-03-27T21:09:10.918Z,9.97
2019-03-27T21:14:18.517Z,9.90
2019-03-27T21:19:25.585Z,9.90
2019-03-27T21:24:32.781Z,10.45
2019-03-27T21:29:39.585Z,9.27
2019-03-27T21:34:47.375Z,9.13
2019-03-27T21:39:54.696Z,10.10
2019-03-27T21:45:01.673Z,10.37
2019-03-27T21:50:10.808Z,9.30
2019-03-27T21:55:22.757Z,8.87
2019-03-27T22:00:39.753Z,9.00
2019-03-27T22:05:47.146Z,9.10
2019-03-27T22:10:54.967Z,8.77
2019-03-27T22:16:01.927Z,8.90
2019-03-27T22:21:09.849Z,8.45
2019-03-27T22:26:17.194Z,8.20
2019-03-27T22:31:24.564Z,8.87
2019-03-27T22:36:31.497Z,8.23
2019-03-27T22:41:38.731Z,8.63
2019-03-27T22:46:45.751Z,8.43
2019-03-27T22:51:53.150Z,8.87
2019-03-27T22:57:00.122Z,8.73
2019-03-27T23:02:07.093Z,8.57
2019-03-27T23:07:14.661Z,8.40
2019-03-27T23:12:21.602Z,9.23
2019-03-27T23:17:28.556Z,9.20
2019-03-27T23:22:35.506Z,9.40
2019-03-27T23:27:42.742Z,8.90
2019-03-27T23:32:49.783Z,8.80
2019-03-27T23:37:56.852Z,9.10
2019-03-27T23:43:03.997Z,9.30
2019-03-27T23:48:11.012Z,8.40
2019-03-27T23:53:18.905Z,9.48
2019-03-27T23:58:25.867Z,9.20
